Lawrence, Ohio
Current Conditions -  °F | °C
As of 10:51 PM on Friday 24 Oct 2014 (Local Time) from KCAK Reporting Station
Scattered Clouds Scattered Clouds  
Wind Chill: 52°   Ceiling: Unl
Heat Index: 52°   Visibility: 9mi
Dew Point: 40°   Wind: 5mph
Humidity: 63%   Direction: 220°SW
Pressure: 30"   Gusts: NA
Location:  40.8849°N, 81.5861°W
Report Text: KCAK 250251Z 22004KT 9SM FEW050 SCT250 11/04 A3000 RMK AO2 SLP161 T01110044 58003
Loading
Personal Weather Stations






























Interactive Weather Map
Tropical Storm Tracking
New forecast layout! Learn more

10-Day Weather Forecast

Advertisements
Track Severe Weather on mobile